Time;durP1;ratioP1;P1;durP2;ratioP2;P2;SDS_P1;SDS_P2;PMS_P1;PMS_P2;Temp;Humidity;BMP_temperature;BMP_pressure;BME280_temperature;BME280_humidity;BME280_pressure;Samples;Min_cycle;Max_cycle;Signal;HPM_P1;HPM_P2
2023/06/04 00:00:50;;;;;;;4.32;1.70;;;;;;;;;;5042905;28;20078;-58
2023/06/04 00:03:15;;;;;;;7.88;2.10;;;;;;;;;;5045525;28;20032;-53
2023/06/04 00:05:41;;;;;;;4.65;1.88;;;;;;;;;;5045359;28;20033;-59
2023/06/04 00:08:06;;;;;;;3.70;2.42;;;;;;;;;;5044914;28;20056;-59
2023/06/04 00:10:33;;;;;;;5.28;2.00;;;;;;;;;;5045355;28;20024;-47
2023/06/04 00:12:59;;;;;;;8.35;2.65;;;;;;;;;;5044618;28;20021;-55
2023/06/04 00:15:24;;;;;;;4.85;2.05;;;;;;;;;;5044759;28;20108;-59
2023/06/04 00:17:49;;;;;;;5.45;2.17;;;;;;;;;;5044463;28;20078;-55
2023/06/04 00:20:15;;;;;;;3.42;1.92;;;;;;;;;;5044519;28;20452;-59
2023/06/04 00:22:41;;;;;;;5.93;1.90;;;;;;;;;;5044285;28;20421;-56
2023/06/04 00:25:07;;;;;;;4.72;1.88;;;;;;;;;;5044320;28;20037;-51
2023/06/04 00:27:32;;;;;;;3.22;1.85;;;;;;;;;;5044454;28;20021;-57
2023/06/04 00:29:58;;;;;;;7.90;2.00;;;;;;;;;;5044166;28;20028;-60
2023/06/04 00:32:23;;;;;;;5.00;2.03;;;;;;;;;;5044507;28;20436;-61
2023/06/04 00:34:52;;;;;;;3.92;1.92;;;;;;;;;;5044314;28;20025;-53
2023/06/04 00:37:17;;;;;;;3.83;1.70;;;;;;;;;;5058750;28;20135;-60
2023/06/04 00:39:42;;;;;;;6.53;2.38;;;;;;;;;;5044107;28;20501;-57
2023/06/04 00:42:08;;;;;;;4.70;2.30;;;;;;;;;;5044145;28;20021;-61
2023/06/04 00:44:33;;;;;;;4.68;2.20;;;;;;;;;;5044129;28;20037;-61
2023/06/04 00:46:58;;;;;;;3.58;1.95;;;;;;;;;;5042063;28;20040;-51
2023/06/04 00:49:24;;;;;;;3.50;1.80;;;;;;;;;;5044579;28;20098;-59
2023/06/04 00:51:50;;;;;;;6.45;2.40;;;;;;;;;;5044065;28;20098;-60
2023/06/04 00:54:17;;;;;;;7.05;1.98;;;;;;;;;;5044257;28;20041;-51
2023/06/04 00:56:44;;;;;;;5.22;2.03;;;;;;;;;;5044122;28;20074;-58
2023/06/04 00:59:10;;;;;;;4.97;2.35;;;;;;;;;;5048214;28;20036;-50
2023/06/04 01:01:35;;;;;;;7.38;2.53;;;;;;;;;;5047811;28;20029;-60
2023/06/04 01:04:02;;;;;;;9.52;2.25;;;;;;;;;;5047858;28;20029;-58
2023/06/04 01:06:30;;;;;;;8.43;2.50;;;;;;;;;;5048184;28;20029;-61
2023/06/04 01:08:57;;;;;;;4.35;1.95;;;;;;;;;;5047976;28;20013;-60
2023/06/04 01:11:36;;;;;;;7.93;2.00;;;;;;;;;;5047917;28;20382;-56
2023/06/04 01:14:08;;;;;;;3.65;1.83;;;;;;;;;;5047679;28;20380;-58
2023/06/04 01:17:01;;;;;;;8.30;2.22;;;;;;;;;;5047811;28;20453;-50
2023/06/04 01:19:51;;;;;;;2.70;1.58;;;;;;;;;;5005405;28;20088;-61
2023/06/04 01:22:23;;;;;;;5.43;2.17;;;;;;;;;;5005383;28;20034;-61
2023/06/04 01:24:55;;;;;;;5.65;1.90;;;;;;;;;;4988436;28;20050;-50
2023/06/04 01:27:21;;;;;;;5.93;1.90;;;;;;;;;;5005402;28;20030;-54
2023/06/04 01:29:49;;;;;;;4.70;2.17;;;;;;;;;;5005175;28;20568;-56
2023/06/04 01:32:15;;;;;;;4.90;2.00;;;;;;;;;;5005356;28;20026;-61
2023/06/04 01:34:44;;;;;;;3.78;1.95;;;;;;;;;;5004991;28;20030;-48
2023/06/04 01:37:11;;;;;;;4.15;2.00;;;;;;;;;;4988504;28;20470;-55
2023/06/04 01:39:36;;;;;;;7.30;1.85;;;;;;;;;;5005330;28;20038;-48
2023/06/04 01:42:02;;;;;;;9.20;2.33;;;;;;;;;;5005224;28;20026;-58
2023/06/04 01:44:27;;;;;;;5.88;2.45;;;;;;;;;;5004638;28;20471;-53
2023/06/04 01:46:52;;;;;;;4.85;2.05;;;;;;;;;;5004907;28;20462;-56
2023/06/04 01:49:18;;;;;;;12.63;2.83;;;;;;;;;;5004704;28;20057;-58
2023/06/04 01:51:43;;;;;;;3.05;1.75;;;;;;;;;;5004674;28;20521;-61
2023/06/04 01:54:08;;;;;;;4.50;2.15;;;;;;;;;;5005269;28;20238;-54
2023/06/04 01:56:34;;;;;;;5.28;2.38;;;;;;;;;;5027989;28;20037;-56
2023/06/04 01:59:01;;;;;;;4.40;2.20;;;;;;;;;;5047172;28;20445;-60
2023/06/04 02:01:26;;;;;;;8.95;2.35;;;;;;;;;;5047093;28;20047;-60
2023/06/04 02:03:52;;;;;;;4.75;2.30;;;;;;;;;;5046585;28;20025;-48
2023/06/04 02:06:17;;;;;;;4.60;2.20;;;;;;;;;;5060993;28;20037;-50
2023/06/04 02:08:43;;;;;;;4.95;1.90;;;;;;;;;;5045762;28;20033;-57
2023/06/04 02:11:08;;;;;;;4.10;2.20;;;;;;;;;;5060936;28;20029;-60
2023/06/04 02:13:34;;;;;;;8.30;2.22;;;;;;;;;;5046514;28;20032;-55
2023/06/04 02:15:59;;;;;;;5.30;2.30;;;;;;;;;;5046331;28;20031;-58
2023/06/04 02:18:24;;;;;;;6.22;2.42;;;;;;;;;;5046378;28;20464;-56
2023/06/04 02:20:51;;;;;;;7.18;2.30;;;;;;;;;;5046693;28;20377;-60
2023/06/04 02:23:17;;;;;;;7.60;2.25;;;;;;;;;;5046457;28;20075;-61
2023/06/04 02:25:44;;;;;;;7.45;2.58;;;;;;;;;;5046248;28;20561;-53
2023/06/04 02:28:10;;;;;;;3.60;1.90;;;;;;;;;;5045915;28;20047;-53
2023/06/04 02:30:35;;;;;;;2.78;1.98;;;;;;;;;;5046459;28;20150;-61
2023/06/04 02:33:00;;;;;;;7.65;2.50;;;;;;;;;;5046319;28;20024;-57
2023/06/04 02:35:26;;;;;;;3.45;2.13;;;;;;;;;;5045921;28;20032;-58
2023/06/04 02:37:52;;;;;;;4.45;1.92;;;;;;;;;;5046511;28;20024;-58
2023/06/04 02:40:17;;;;;;;5.30;1.98;;;;;;;;;;5046155;28;20380;-58
2023/06/04 02:42:42;;;;;;;5.10;1.98;;;;;;;;;;5046258;28;20354;-51
2023/06/04 02:45:08;;;;;;;4.28;2.00;;;;;;;;;;5046084;28;20029;-56
2023/06/04 02:47:33;;;;;;;4.18;1.63;;;;;;;;;;5045384;28;20057;-60
2023/06/04 02:49:58;;;;;;;8.25;2.50;;;;;;;;;;5045903;28;20009;-59
2023/06/04 02:52:25;;;;;;;7.13;2.10;;;;;;;;;;5045917;28;20521;-52
2023/06/04 02:54:50;;;;;;;8.60;2.33;;;;;;;;;;5044554;28;20043;-58
2023/06/04 02:57:15;;;;;;;7.00;2.20;;;;;;;;;;5045013;28;20457;-50
2023/06/04 02:59:41;;;;;;;8.20;2.30;;;;;;;;;;5045564;28;20021;-57
2023/06/04 03:02:06;;;;;;;5.88;2.85;;;;;;;;;;5045245;28;20469;-58
2023/06/04 03:04:34;;;;;;;9.25;3.35;;;;;;;;;;5043295;28;20041;-59
2023/06/04 03:07:00;;;;;;;7.25;3.13;;;;;;;;;;5045755;28;20025;-60
2023/06/04 03:09:25;;;;;;;15.80;2.80;;;;;;;;;;5045641;28;20043;-51
2023/06/04 03:11:51;;;;;;;6.32;3.17;;;;;;;;;;5045322;28;20520;-58
2023/06/04 03:14:17;;;;;;;8.07;2.45;;;;;;;;;;5045443;28;20025;-62
2023/06/04 03:16:44;;;;;;;6.63;3.70;;;;;;;;;;5045074;28;20116;-57
2023/06/04 03:19:11;;;;;;;5.60;1.90;;;;;;;;;;5044824;28;20475;-58
2023/06/04 03:21:39;;;;;;;4.13;1.85;;;;;;;;;;5044700;28;20021;-45
2023/06/04 03:24:04;;;;;;;4.85;1.98;;;;;;;;;;5044880;28;20056;-59
2023/06/04 03:26:30;;;;;;;6.85;1.95;;;;;;;;;;5045087;28;20037;-55
2023/06/04 03:28:55;;;;;;;8.13;1.63;;;;;;;;;;5045251;28;20025;-60
2023/06/04 03:31:20;;;;;;;5.50;2.25;;;;;;;;;;5044815;28;20051;-60
2023/06/04 03:33:45;;;;;;;4.53;1.98;;;;;;;;;;5045107;28;20646;-49
2023/06/04 03:36:11;;;;;;;5.20;1.83;;;;;;;;;;5044912;28;20176;-57
2023/06/04 03:38:36;;;;;;;5.93;2.25;;;;;;;;;;5045252;28;20424;-58
2023/06/04 03:41:01;;;;;;;5.75;1.73;;;;;;;;;;5042319;28;20029;-59
2023/06/04 03:43:26;;;;;;;7.53;2.00;;;;;;;;;;5044654;28;20032;-53
2023/06/04 03:45:52;;;;;;;3.50;1.60;;;;;;;;;;5044104;28;20083;-59
2023/06/04 03:48:17;;;;;;;7.13;1.75;;;;;;;;;;5044589;28;20024;-59
2023/06/04 03:50:43;;;;;;;3.65;1.65;;;;;;;;;;5044525;28;20024;-50
2023/06/04 03:53:09;;;;;;;7.22;1.58;;;;;;;;;;5044172;28;20075;-58
2023/06/04 03:55:34;;;;;;;4.15;1.75;;;;;;;;;;5044346;28;20061;-59
2023/06/04 03:57:59;;;;;;;2.83;1.73;;;;;;;;;;5043969;28;20186;-54
2023/06/04 04:00:26;;;;;;;4.35;1.60;;;;;;;;;;5044622;28;20096;-58
2023/06/04 04:02:51;;;;;;;3.40;1.83;;;;;;;;;;5044267;28;20036;-52
2023/06/04 04:05:17;;;;;;;8.57;2.63;;;;;;;;;;5044524;28;20041;-52
2023/06/04 04:07:42;;;;;;;8.82;2.40;;;;;;;;;;5044099;28;20033;-59
2023/06/04 04:10:07;;;;;;;7.60;2.35;;;;;;;;;;5044005;28;20024;-60
2023/06/04 04:12:33;;;;;;;4.57;1.95;;;;;;;;;;5044135;28;20029;-56
2023/06/04 04:14:58;;;;;;;6.78;2.35;;;;;;;;;;5043782;28;20503;-58
2023/06/04 04:17:23;;;;;;;6.72;1.90;;;;;;;;;;5044128;28;20468;-54
2023/06/04 04:19:49;;;;;;;3.95;1.70;;;;;;;;;;5043890;28;20025;-59
2023/06/04 04:22:17;;;;;;;4.80;1.60;;;;;;;;;;5044070;28;20108;-50
2023/06/04 04:24:42;;;;;;;3.85;2.35;;;;;;;;;;5043607;28;20472;-60
2023/06/04 04:27:10;;;;;;;7.88;1.90;;;;;;;;;;5043889;28;20340;-58
2023/06/04 04:29:36;;;;;;;3.42;1.88;;;;;;;;;;5043654;28;20033;-56
2023/06/04 04:32:09;;;;;;;2.25;1.55;;;;;;;;;;5043047;28;20017;-58
2023/06/04 04:34:34;;;;;;;3.88;1.80;;;;;;;;;;5043689;28;20044;-49
2023/06/04 04:37:00;;;;;;;4.03;1.90;;;;;;;;;;5043705;28;20032;-54
2023/06/04 04:39:25;;;;;;;7.43;1.80;;;;;;;;;;5043727;28;20437;-59
2023/06/04 04:41:51;;;;;;;3.88;1.70;;;;;;;;;;5043439;28;20075;-55
2023/06/04 04:44:16;;;;;;;8.23;1.92;;;;;;;;;;5043677;28;20095;-47
2023/06/04 04:46:42;;;;;;;3.58;2.22;;;;;;;;;;5044111;28;20036;-58
2023/06/04 04:49:07;;;;;;;9.02;1.70;;;;;;;;;;5043650;28;20431;-49
2023/06/04 04:51:32;;;;;;;5.50;1.85;;;;;;;;;;5043439;28;20397;-54
2023/06/04 04:54:00;;;;;;;8.10;2.17;;;;;;;;;;5043395;28;20029;-59
2023/06/04 04:56:26;;;;;;;5.65;2.00;;;;;;;;;;5041143;28;20302;-60
2023/06/04 04:58:51;;;;;;;4.72;1.65;;;;;;;;;;5043573;28;20310;-60
2023/06/04 05:01:16;;;;;;;10.68;2.50;;;;;;;;;;5042659;28;20295;-52
2023/06/04 05:03:42;;;;;;;3.13;1.70;;;;;;;;;;5043614;28;20025;-58
2023/06/04 05:06:07;;;;;;;6.63;1.73;;;;;;;;;;5043559;28;20029;-58
2023/06/04 05:08:32;;;;;;;3.47;1.52;;;;;;;;;;5043763;28;20040;-55
2023/06/04 05:10:57;;;;;;;6.90;1.90;;;;;;;;;;5043732;28;20060;-56
2023/06/04 05:13:23;;;;;;;5.87;2.00;;;;;;;;;;5043791;28;20108;-59
2023/06/04 05:15:52;;;;;;;5.15;1.92;;;;;;;;;;5044077;28;20776;-59
2023/06/04 05:18:20;;;;;;;8.98;2.10;;;;;;;;;;5043951;28;20028;-47
2023/06/04 05:20:45;;;;;;;4.32;1.90;;;;;;;;;;5044737;28;20025;-60
2023/06/04 05:23:12;;;;;;;5.78;2.45;;;;;;;;;;5043131;28;20086;-58
2023/06/04 05:25:38;;;;;;;8.18;2.28;;;;;;;;;;5043299;28;20032;-57
2023/06/04 05:28:05;;;;;;;6.45;2.10;;;;;;;;;;5043126;28;20033;-47
2023/06/04 05:30:31;;;;;;;5.68;1.80;;;;;;;;;;5043556;28;20106;-52
2023/06/04 05:32:56;;;;;;;9.85;2.20;;;;;;;;;;5043255;28;20479;-50
2023/06/04 05:35:22;;;;;;;6.88;1.60;;;;;;;;;;5043177;28;20033;-56
2023/06/04 05:37:53;;;;;;;6.63;1.70;;;;;;;;;;5042841;28;20051;-57
2023/06/04 05:40:18;;;;;;;5.95;1.92;;;;;;;;;;5040994;28;20102;-50
2023/06/04 05:42:44;;;;;;;10.57;3.00;;;;;;;;;;5043432;28;20449;-58
2023/06/04 05:45:09;;;;;;;17.98;5.95;;;;;;;;;;5044347;28;20024;-60
2023/06/04 05:47:35;;;;;;;30.10;10.00;;;;;;;;;;5046653;28;20029;-56
2023/06/04 05:50:00;;;;;;;7.25;3.30;;;;;;;;;;5046424;28;20029;-59
2023/06/04 05:52:25;;;;;;;12.18;3.65;;;;;;;;;;5046703;28;20459;-53
2023/06/04 05:54:51;;;;;;;15.25;5.93;;;;;;;;;;5045917;28;20024;-58
2023/06/04 05:57:16;;;;;;;5.00;2.22;;;;;;;;;;5046587;28;20488;-60
2023/06/04 05:59:41;;;;;;;4.05;1.52;;;;;;;;;;5046525;28;20305;-51
2023/06/04 06:02:07;;;;;;;7.30;2.03;;;;;;;;;;5046704;28;20025;-54
2023/06/04 06:04:32;;;;;;;8.60;4.30;;;;;;;;;;5046507;28;20104;-54
2023/06/04 06:06:57;;;;;;;10.98;3.78;;;;;;;;;;5046884;28;20017;-53
2023/06/04 06:09:23;;;;;;;7.50;2.30;;;;;;;;;;5046310;28;20067;-58
2023/06/04 06:11:48;;;;;;;3.42;1.55;;;;;;;;;;5046660;28;20245;-59
2023/06/04 06:14:13;;;;;;;5.40;1.90;;;;;;;;;;5047434;28;20251;-49
2023/06/04 06:16:39;;;;;;;6.20;1.65;;;;;;;;;;5046464;28;20253;-53
2023/06/04 06:19:04;;;;;;;2.92;1.60;;;;;;;;;;5046177;28;20380;-59
2023/06/04 06:21:30;;;;;;;5.32;1.73;;;;;;;;;;5045709;28;20152;-58
2023/06/04 06:23:55;;;;;;;8.70;1.73;;;;;;;;;;5043557;28;20083;-60
2023/06/04 06:26:21;;;;;;;4.87;1.70;;;;;;;;;;5045325;28;20032;-53
2023/06/04 06:28:47;;;;;;;7.82;1.75;;;;;;;;;;5045963;28;20250;-57
2023/06/04 06:31:12;;;;;;;10.65;1.70;;;;;;;;;;5045642;28;20039;-59
2023/06/04 06:33:40;;;;;;;4.38;2.05;;;;;;;;;;5043432;28;20530;-48
2023/06/04 06:36:06;;;;;;;21.05;2.10;;;;;;;;;;5045476;28;20020;-57
2023/06/04 06:38:31;;;;;;;12.85;2.00;;;;;;;;;;5045506;28;20025;-53
2023/06/04 06:40:57;;;;;;;3.43;1.50;;;;;;;;;;5045851;28;20021;-54
2023/06/04 06:43:22;;;;;;;4.00;1.90;;;;;;;;;;5045369;28;20276;-59
2023/06/04 06:45:47;;;;;;;5.05;1.98;;;;;;;;;;5045859;28;20757;-55
2023/06/04 06:48:12;;;;;;;5.50;1.83;;;;;;;;;;5045724;28;20028;-53
2023/06/04 06:50:38;;;;;;;3.85;1.77;;;;;;;;;;5045794;28;20729;-57
2023/06/04 06:53:03;;;;;;;5.03;2.10;;;;;;;;;;5045711;28;20021;-59
2023/06/04 06:55:28;;;;;;;9.80;2.13;;;;;;;;;;5044351;28;20250;-50
2023/06/04 06:57:54;;;;;;;7.70;2.33;;;;;;;;;;5044803;28;20028;-54
2023/06/04 07:00:19;;;;;;;8.95;2.00;;;;;;;;;;5045160;28;20384;-58
2023/06/04 07:02:44;;;;;;;5.30;1.67;;;;;;;;;;5045696;28;20392;-54
2023/06/04 07:05:10;;;;;;;5.28;1.63;;;;;;;;;;5045081;28;20448;-54
2023/06/04 07:07:36;;;;;;;3.50;1.70;;;;;;;;;;5045113;28;20057;-50
2023/06/04 07:10:03;;;;;;;3.58;1.70;;;;;;;;;;5044847;28;20396;-59
2023/06/04 07:12:29;;;;;;;12.75;1.90;;;;;;;;;;5044869;28;20104;-49
2023/06/04 07:14:54;;;;;;;4.85;1.75;;;;;;;;;;5044807;28;20163;-58
2023/06/04 07:17:19;;;;;;;5.32;1.40;;;;;;;;;;5045006;28;20043;-60
2023/06/04 07:19:45;;;;;;;3.67;1.63;;;;;;;;;;5044949;28;20773;-51
2023/06/04 07:22:10;;;;;;;6.85;1.83;;;;;;;;;;5044698;28;20009;-60
2023/06/04 07:24:35;;;;;;;4.97;2.07;;;;;;;;;;5044840;28;20068;-51
2023/06/04 07:27:01;;;;;;;7.43;1.87;;;;;;;;;;5044924;28;20250;-55
2023/06/04 07:29:26;;;;;;;3.63;1.60;;;;;;;;;;5044551;28;20250;-59
2023/06/04 07:31:51;;;;;;;4.15;1.58;;;;;;;;;;5044627;28;20056;-47
2023/06/04 07:34:17;;;;;;;9.40;1.70;;;;;;;;;;5044712;28;20039;-56
2023/06/04 07:36:42;;;;;;;9.73;1.87;;;;;;;;;;5044438;28;20729;-59
2023/06/04 07:39:07;;;;;;;6.33;1.90;;;;;;;;;;5044704;28;20043;-57
2023/06/04 07:41:32;;;;;;;6.37;2.30;;;;;;;;;;5042161;28;20269;-48
2023/06/04 07:43:58;;;;;;;4.27;2.77;;;;;;;;;;5044163;28;20337;-55
2023/06/04 07:46:23;;;;;;;4.87;1.90;;;;;;;;;;5044646;28;20032;-58
2023/06/04 07:48:48;;;;;;;5.53;2.23;;;;;;;;;;5044276;28;20257;-60
2023/06/04 07:51:14;;;;;;;6.72;1.92;;;;;;;;;;5041922;28;20249;-52
2023/06/04 07:53:39;;;;;;;4.68;1.27;;;;;;;;;;5043737;28;20488;-60
2023/06/04 07:56:05;;;;;;;2.28;1.38;;;;;;;;;;5042737;28;20031;-56
2023/06/04 07:58:30;;;;;;;3.00;1.50;;;;;;;;;;5044034;28;20052;-56
2023/06/04 08:00:56;;;;;;;4.72;1.40;;;;;;;;;;5044193;28;20446;-59
2023/06/04 08:03:21;;;;;;;8.33;1.90;;;;;;;;;;5043859;28;20460;-60
2023/06/04 08:05:46;;;;;;;6.40;1.88;;;;;;;;;;5043657;28;20031;-53
2023/06/04 08:08:12;;;;;;;6.77;2.10;;;;;;;;;;5043309;28;20103;-57
2023/06/04 08:10:39;;;;;;;5.90;2.60;;;;;;;;;;5044498;28;20238;-60
2023/06/04 08:13:04;;;;;;;3.33;1.50;;;;;;;;;;5043843;28;20348;-59
2023/06/04 08:15:29;;;;;;;4.80;1.40;;;;;;;;;;5043534;28;20163;-54
2023/06/04 08:17:55;;;;;;;3.70;1.38;;;;;;;;;;5044110;28;20454;-58
2023/06/04 08:20:20;;;;;;;2.97;1.70;;;;;;;;;;5043613;28;20025;-59
2023/06/04 08:22:45;;;;;;;2.63;1.60;;;;;;;;;;5043341;28;20261;-60
2023/06/04 08:25:10;;;;;;;6.67;2.00;;;;;;;;;;5043608;28;20308;-51
2023/06/04 08:27:37;;;;;;;3.53;1.55;;;;;;;;;;5043752;28;20056;-58
2023/06/04 08:30:02;;;;;;;5.00;1.58;;;;;;;;;;5043650;28;20021;-60
2023/06/04 08:32:28;;;;;;;4.93;1.73;;;;;;;;;;5044062;28;20452;-57
2023/06/04 08:34:54;;;;;;;4.83;1.60;;;;;;;;;;5044115;28;20031;-60
2023/06/04 08:37:19;;;;;;;3.95;1.30;;;;;;;;;;5043815;28;20246;-50
2023/06/04 08:39:45;;;;;;;5.35;1.58;;;;;;;;;;5043734;28;20163;-57
2023/06/04 08:42:15;;;;;;;5.50;1.98;;;;;;;;;;5043750;28;20013;-59
2023/06/04 08:44:42;;;;;;;6.45;1.90;;;;;;;;;;5043798;28;20028;-56
2023/06/04 08:47:08;;;;;;;2.45;1.70;;;;;;;;;;5043470;28;20115;-60
2023/06/04 08:49:35;;;;;;;9.05;1.85;;;;;;;;;;5043926;28;20013;-59
2023/06/04 08:52:01;;;;;;;3.88;1.70;;;;;;;;;;5043406;28;20017;-56
2023/06/04 08:54:26;;;;;;;4.80;1.80;;;;;;;;;;5043418;28;20545;-59
2023/06/04 08:56:52;;;;;;;2.80;1.55;;;;;;;;;;5042930;28;20516;-56
2023/06/04 08:59:17;;;;;;;6.50;1.73;;;;;;;;;;5043320;28;20682;-59
2023/06/04 09:01:44;;;;;;;8.23;1.80;;;;;;;;;;5043349;28;20040;-58
2023/06/04 09:04:10;;;;;;;5.80;1.80;;;;;;;;;;5043196;28;20615;-60
2023/06/04 09:06:37;;;;;;;4.30;2.08;;;;;;;;;;5043143;28;20025;-56
2023/06/04 09:09:05;;;;;;;5.70;2.05;;;;;;;;;;5043265;28;20029;-59
2023/06/04 09:11:34;;;;;;;7.82;1.70;;;;;;;;;;5043611;28;20025;-58
2023/06/04 09:14:00;;;;;;;2.70;1.55;;;;;;;;;;5043215;28;20025;-59
2023/06/04 09:16:25;;;;;;;2.90;1.75;;;;;;;;;;5043322;28;20036;-59
2023/06/04 09:18:50;;;;;;;6.47;1.90;;;;;;;;;;5045881;28;20431;-51
2023/06/04 09:21:16;;;;;;;8.10;1.97;;;;;;;;;;5047259;28;20122;-58
2023/06/04 09:23:45;;;;;;;5.45;1.77;;;;;;;;;;5046793;28;20292;-60
2023/06/04 09:26:10;;;;;;;2.42;1.90;;;;;;;;;;5047191;28;20389;-59
2023/06/04 09:28:39;;;;;;;3.97;1.77;;;;;;;;;;5047610;28;20029;-54
2023/06/04 09:31:07;;;;;;;3.30;1.77;;;;;;;;;;5046173;28;20487;-56
2023/06/04 09:33:41;;;;;;;2.92;1.90;;;;;;;;;;5047299;28;20033;-52
2023/06/04 09:36:07;;;;;;;6.45;1.60;;;;;;;;;;5047458;28;20032;-50
2023/06/04 09:38:33;;;;;;;6.82;1.80;;;;;;;;;;5047310;28;20032;-55
2023/06/04 09:41:00;;;;;;;2.20;1.42;;;;;;;;;;5046781;28;20024;-55
2023/06/04 09:43:26;;;;;;;4.65;1.60;;;;;;;;;;5046773;28;20032;-50
2023/06/04 09:45:51;;;;;;;3.80;1.73;;;;;;;;;;5047152;28;20029;-59
2023/06/04 09:48:21;;;;;;;4.97;2.08;;;;;;;;;;5046747;28;20085;-58
2023/06/04 09:50:46;;;;;;;6.10;1.60;;;;;;;;;;5046876;28;20032;-57
2023/06/04 09:53:15;;;;;;;2.58;1.70;;;;;;;;;;5046673;28;20021;-53
2023/06/04 09:55:40;;;;;;;;;;;;;;;;;;5046859;28;20048;-53
2023/06/04 09:58:06;;;;;;;7.77;2.07;;;;;;;;;;5046539;28;20436;-54
2023/06/04 10:00:32;;;;;;;6.07;1.83;;;;;;;;;;5046320;28;20086;-54
2023/06/04 10:02:58;;;;;;;3.00;1.50;;;;;;;;;;5046221;28;20025;-56
2023/06/04 10:05:24;;;;;;;2.05;1.55;;;;;;;;;;5045788;28;20021;-60
2023/06/04 10:07:51;;;;;;;3.72;1.58;;;;;;;;;;5045841;28;20040;-49
2023/06/04 10:10:17;;;;;;;3.72;1.85;;;;;;;;;;5045763;28;20028;-58
2023/06/04 10:12:43;;;;;;;3.72;2.15;;;;;;;;;;5045833;28;20017;-59
2023/06/04 10:15:12;;;;;;;3.88;1.70;;;;;;;;;;5045643;28;20431;-61
2023/06/04 10:17:38;;;;;;;3.70;1.85;;;;;;;;;;5045541;28;20025;-49
2023/06/04 10:20:05;;;;;;;2.38;1.42;;;;;;;;;;5043755;28;20419;-56
2023/06/04 10:22:31;;;;;;;3.47;1.50;;;;;;;;;;5045855;28;20025;-53
2023/06/04 10:24:57;;;;;;;2.15;1.40;;;;;;;;;;5045910;28;20467;-55
2023/06/04 10:27:22;;;;;;;3.45;1.77;;;;;;;;;;5060276;28;20121;-57
2023/06/04 10:29:49;;;;;;;3.83;1.80;;;;;;;;;;5044938;28;20557;-57
2023/06/04 10:32:15;;;;;;;1.70;1.45;;;;;;;;;;5045488;28;20047;-53
2023/06/04 10:34:40;;;;;;;3.50;1.65;;;;;;;;;;5044425;28;20469;-60
2023/06/04 10:37:05;;;;;;;3.55;1.70;;;;;;;;;;5045577;28;20017;-54
2023/06/04 10:39:35;;;;;;;2.65;1.77;;;;;;;;;;5045543;28;20436;-58
2023/06/04 10:42:03;;;;;;;5.22;1.77;;;;;;;;;;5045431;28;20381;-59
2023/06/04 10:44:32;;;;;;;4.28;1.77;;;;;;;;;;5045231;28;20021;-52
2023/06/04 10:46:57;;;;;;;;;;;;;;;;;;5045950;28;20327;-60
2023/06/04 10:49:29;;;;;;;2.80;1.80;;;;;;;;;;5045396;28;20205;-55
2023/06/04 10:52:03;;;;;;;4.32;2.05;;;;;;;;;;5044792;28;20541;-55
2023/06/04 10:54:28;;;;;;;5.25;1.63;;;;;;;;;;5044606;28;20423;-58
2023/06/04 10:56:54;;;;;;;3.45;1.70;;;;;;;;;;5044755;28;20025;-54
2023/06/04 10:59:19;;;;;;;3.77;1.90;;;;;;;;;;5044479;28;20021;-59
2023/06/04 11:01:45;;;;;;;4.55;1.67;;;;;;;;;;5044923;28;20602;-57
2023/06/04 11:04:21;;;;;;;3.45;1.63;;;;;;;;;;5044850;28;20024;-59
2023/06/04 11:06:46;;;;;;;3.10;1.60;;;;;;;;;;5044653;28;20032;-59
2023/06/04 11:09:14;;;;;;;3.40;1.80;;;;;;;;;;5044911;28;20025;-57
2023/06/04 11:11:40;;;;;;;3.63;1.98;;;;;;;;;;5044498;28;20388;-52
2023/06/04 11:14:12;;;;;;;3.17;1.60;;;;;;;;;;5044523;28;20029;-58
2023/06/04 11:16:38;;;;;;;6.22;1.88;;;;;;;;;;5044838;28;20042;-56
2023/06/04 11:19:03;;;;;;;2.38;1.77;;;;;;;;;;5044699;28;20029;-60
2023/06/04 11:21:28;;;;;;;6.30;1.60;;;;;;;;;;5044748;28;20028;-60
2023/06/04 11:24:00;;;;;;;4.25;2.00;;;;;;;;;;5044501;28;20273;-56
2023/06/04 11:26:33;;;;;;;2.83;1.77;;;;;;;;;;5044170;28;20063;-52
2023/06/04 11:28:58;;;;;;;4.10;1.60;;;;;;;;;;5044807;28;20052;-59
2023/06/04 11:31:23;;;;;;;5.25;1.63;;;;;;;;;;5044312;28;20457;-54
2023/06/04 11:33:49;;;;;;;3.42;1.88;;;;;;;;;;5044303;28;20278;-56
2023/06/04 11:36:27;;;;;;;3.03;1.90;;;;;;;;;;5044118;28;20028;-60
2023/06/04 11:38:59;;;;;;;3.10;2.00;;;;;;;;;;5043878;28;20409;-53
2023/06/04 11:41:26;;;;;;;3.78;1.40;;;;;;;;;;5043247;28;20025;-60
2023/06/04 11:43:52;;;;;;;5.60;2.67;;;;;;;;;;5044220;28;20495;-57
2023/06/04 11:46:17;;;;;;;6.13;2.13;;;;;;;;;;5044403;28;20112;-60
2023/06/04 11:48:43;;;;;;;4.15;1.70;;;;;;;;;;5044131;28;20242;-55
2023/06/04 11:51:09;;;;;;;3.28;1.80;;;;;;;;;;5043956;28;20025;-56
2023/06/04 11:53:36;;;;;;;8.60;1.90;;;;;;;;;;5026604;28;20056;-55
2023/06/04 11:56:01;;;;;;;3.92;2.00;;;;;;;;;;5041207;28;20502;-54
2023/06/04 11:58:27;;;;;;;4.22;1.95;;;;;;;;;;5043814;28;20025;-58
2023/06/04 12:00:52;;;;;;;5.50;1.80;;;;;;;;;;5043991;28;20083;-61
2023/06/04 12:03:18;;;;;;;3.47;1.90;;;;;;;;;;5043490;28;20079;-57
2023/06/04 12:05:43;;;;;;;3.00;1.80;;;;;;;;;;5043407;28;20128;-60
2023/06/04 12:08:09;;;;;;;2.87;1.90;;;;;;;;;;5043866;28;20021;-60
2023/06/04 12:10:41;;;;;;;8.20;2.15;;;;;;;;;;5043997;28;20021;-49
2023/06/04 12:13:07;;;;;;;4.25;1.77;;;;;;;;;;5043775;28;20029;-51
2023/06/04 12:15:32;;;;;;;4.28;2.47;;;;;;;;;;5043763;28;20536;-59
2023/06/04 12:17:58;;;;;;;5.23;1.80;;;;;;;;;;5041094;28;20503;-53
2023/06/04 12:20:33;;;;;;;8.27;2.00;;;;;;;;;;5043504;28;20239;-57
2023/06/04 12:22:58;;;;;;;3.50;1.85;;;;;;;;;;5044018;28;20388;-61
2023/06/04 12:25:27;;;;;;;7.37;2.30;;;;;;;;;;5043631;28;20631;-52
2023/06/04 12:27:53;;;;;;;3.15;2.13;;;;;;;;;;5043194;28;20253;-55
2023/06/04 12:30:18;;;;;;;2.72;1.90;;;;;;;;;;5043637;28;20028;-59
2023/06/04 12:32:45;;;;;;;7.50;2.10;;;;;;;;;;5043348;28;20485;-53
2023/06/04 12:35:10;;;;;;;3.33;2.25;;;;;;;;;;5043354;28;20293;-59
2023/06/04 12:37:35;;;;;;;5.78;2.10;;;;;;;;;;5043146;28;20060;-51
2023/06/04 12:40:01;;;;;;;2.00;1.60;;;;;;;;;;5043322;28;20025;-52
2023/06/04 12:42:27;;;;;;;4.60;1.90;;;;;;;;;;5043017;28;20672;-58
2023/06/04 12:44:53;;;;;;;3.33;2.15;;;;;;;;;;5043143;28;20028;-54
2023/06/04 12:47:18;;;;;;;2.50;2.00;;;;;;;;;;5043491;28;20033;-59
2023/06/04 12:49:44;;;;;;;6.72;2.10;;;;;;;;;;5043024;28;20333;-57
2023/06/04 12:52:09;;;;;;;4.47;2.10;;;;;;;;;;5043137;28;20244;-60
2023/06/04 12:54:35;;;;;;;7.07;2.30;;;;;;;;;;5046212;28;20090;-54
2023/06/04 12:57:00;;;;;;;5.27;2.17;;;;;;;;;;5046383;28;20022;-59
2023/06/04 12:59:26;;;;;;;5.25;1.75;;;;;;;;;;5046667;28;20305;-53
2023/06/04 13:01:52;;;;;;;4.45;1.70;;;;;;;;;;5046616;28;20497;-50
2023/06/04 13:04:18;;;;;;;4.47;2.28;;;;;;;;;;5046758;28;20028;-52
2023/06/04 13:06:45;;;;;;;3.90;2.00;;;;;;;;;;5046495;28;20500;-57
2023/06/04 13:09:10;;;;;;;6.13;2.70;;;;;;;;;;5061348;28;20036;-59
2023/06/04 13:11:40;;;;;;;7.22;3.13;;;;;;;;;;5045354;28;20029;-50
2023/06/04 13:14:05;;;;;;;5.97;2.05;;;;;;;;;;5046540;28;20027;-57
2023/06/04 13:16:30;;;;;;;4.32;2.47;;;;;;;;;;5044309;28;20033;-60
2023/06/04 13:18:56;;;;;;;4.45;2.03;;;;;;;;;;5046788;28;20420;-51
2023/06/04 13:21:21;;;;;;;4.27;2.23;;;;;;;;;;5046697;28;20033;-58
2023/06/04 13:23:46;;;;;;;3.72;1.98;;;;;;;;;;5046562;28;20266;-61
2023/06/04 13:26:12;;;;;;;9.20;2.65;;;;;;;;;;5046369;28;20642;-52
2023/06/04 13:28:37;;;;;;;2.90;1.87;;;;;;;;;;5046456;28;20017;-59
2023/06/04 13:31:02;;;;;;;6.60;1.80;;;;;;;;;;5044376;28;20250;-55
2023/06/04 13:33:28;;;;;;;5.28;2.00;;;;;;;;;;5046528;28;20459;-54
2023/06/04 13:35:53;;;;;;;6.55;3.60;;;;;;;;;;5046355;28;20511;-59
2023/06/04 13:38:19;;;;;;;3.27;2.10;;;;;;;;;;5046395;28;20087;-60
2023/06/04 13:40:44;;;;;;;5.15;2.33;;;;;;;;;;5046651;28;20297;-60
2023/06/04 13:43:10;;;;;;;4.72;2.90;;;;;;;;;;5046064;28;20483;-52
2023/06/04 13:45:35;;;;;;;4.68;2.40;;;;;;;;;;5045987;28;20052;-57
2023/06/04 13:48:04;;;;;;;7.32;2.22;;;;;;;;;;5045838;28;20538;-61
2023/06/04 13:50:30;;;;;;;7.43;3.00;;;;;;;;;;5046285;28;20028;-54
2023/06/04 13:52:55;;;;;;;6.70;3.03;;;;;;;;;;5046042;28;20439;-60
2023/06/04 13:55:20;;;;;;;4.10;2.40;;;;;;;;;;5045833;28;20495;-55
2023/06/04 13:57:46;;;;;;;4.13;2.47;;;;;;;;;;5045713;28;20599;-50
2023/06/04 14:00:13;;;;;;;8.07;2.53;;;;;;;;;;5045997;28;20285;-56
2023/06/04 14:02:39;;;;;;;2.65;1.80;;;;;;;;;;5043661;28;20311;-51
2023/06/04 14:05:04;;;;;;;5.88;2.60;;;;;;;;;;5044484;28;20854;-61
2023/06/04 14:07:29;;;;;;;6.38;2.28;;;;;;;;;;5045820;28;20025;-47
2023/06/04 14:09:55;;;;;;;4.00;1.80;;;;;;;;;;5045810;28;20028;-57
2023/06/04 14:12:21;;;;;;;3.92;1.90;;;;;;;;;;5045244;28;20245;-54
2023/06/04 14:14:46;;;;;;;4.05;2.35;;;;;;;;;;5045437;28;20178;-54
2023/06/04 14:17:12;;;;;;;4.87;2.73;;;;;;;;;;5045646;28;20507;-53
2023/06/04 14:19:38;;;;;;;5.03;2.00;;;;;;;;;;5045815;28;20249;-56
2023/06/04 14:22:04;;;;;;;4.63;2.00;;;;;;;;;;5045299;28;20258;-54
2023/06/04 14:24:30;;;;;;;4.43;1.90;;;;;;;;;;5045140;28;20045;-59
2023/06/04 14:26:55;;;;;;;5.60;2.10;;;;;;;;;;5045190;28;20274;-60
2023/06/04 14:29:21;;;;;;;4.28;2.08;;;;;;;;;;5045317;28;20091;-53
2023/06/04 14:31:46;;;;;;;2.90;2.10;;;;;;;;;;5045334;28;20367;-56
2023/06/04 14:34:11;;;;;;;2.30;1.67;;;;;;;;;;5045092;28;20021;-60
2023/06/04 14:36:37;;;;;;;3.05;2.20;;;;;;;;;;5045455;28;20056;-54